Kezdőlap
METAR-TAF:

METAR-TAF

Repülőterek :

Tri-Township Airport

Savanna, Illinois, Amerikai Egyesült Államok

földrajzi szélesség: 42-02-45N, földrajzi hosszúság: 090-06-28W, magasság: 188 m

Jelenlegi meteorológiai megfigyelések

A jelentés 13 perccel ezelõtt készült, 14:35 UTC
Északnyugati szél 8 kt
Hőmérséklet 11°C
Páratartalom 71%
Légköri nyomás 1017 hPa
Látótávolság: 16.1 km
Szakadozott felhőzet 2400 lábon
Szakadozott felhőzet 2900 lábon

METAR: KSFY 011435Z AUTO 31008KT 10SM BKN024 BKN029 11/06 A3004 RMK AO2

Idő: 09:48 (14:48 UTC)


TAF: hiányzik

Meteorológiai megfigyelések és előrejelzések több, mint 4000 repülőtéren (METAR és TAF jelentéseket).

A térképen piros és sárga pontok jelzik az elérhető meteorológiai állomásokat.

Mozgassa az egeret a pont fölött, hogy megjelenjen az állomás neve.

Azután kattintson az időjárási megfigyelések és előrejelzések megtekintéséhez.

A térkép megváltoztatása: kattintson a fekete keresztel jelölt zöld gombra ráközelítéshez, a vonallal jelölt zöld gombra távolításhoz, vagy a zöld nyilakra a szomszédos térképek eléréséhez.


METAR-TAF: